createdAt,value
2019-01-24T00:02:26.339Z,75.53
2019-01-24T00:04:54.494Z,75.51
2019-01-24T00:07:21.727Z,75.29
2019-01-24T00:09:47.972Z,75.34
2019-01-24T00:12:13.947Z,75.27
2019-01-24T00:14:39.882Z,75.32
2019-01-24T00:17:05.804Z,75.24
2019-01-24T00:19:31.784Z,75.10
2019-01-24T00:21:58.330Z,74.95
2019-01-24T00:24:24.266Z,75.01
2019-01-24T00:26:50.260Z,75.02
2019-01-24T00:29:16.197Z,75.08
2019-01-24T00:31:42.153Z,75.32
2019-01-24T00:34:10.018Z,75.56
2019-01-24T00:36:36.262Z,75.75
2019-01-24T00:39:06.100Z,75.70
2019-01-24T00:41:32.565Z,75.59
2019-01-24T00:43:58.498Z,75.51
2019-01-24T00:46:24.931Z,75.29
2019-01-24T00:48:51.222Z,75.13
2019-01-24T00:51:17.168Z,75.19
2019-01-24T00:53:43.100Z,75.36
2019-01-24T00:56:09.176Z,75.25
2019-01-24T00:58:35.126Z,75.16
2019-01-24T01:01:01.066Z,75.13
2019-01-24T01:03:27.035Z,75.14
2019-01-24T01:05:53.043Z,75.01
2019-01-24T01:08:18.981Z,74.90
2019-01-24T01:10:45.795Z,74.85
2019-01-24T01:13:11.734Z,74.84
2019-01-24T01:15:37.870Z,74.94
2019-01-24T01:18:04.340Z,74.93
2019-01-24T01:20:30.273Z,74.70
2019-01-24T01:22:57.803Z,74.66
2019-01-24T01:25:23.761Z,74.63
2019-01-24T01:27:49.713Z,74.65
2019-01-24T01:30:18.262Z,74.74
2019-01-24T01:32:44.586Z,74.83
2019-01-24T01:35:11.025Z,74.92
2019-01-24T01:37:37.054Z,75.02
2019-01-24T01:40:06.624Z,75.23
2019-01-24T01:42:32.747Z,75.37
2019-01-24T01:45:00.381Z,75.44
2019-01-24T01:47:27.886Z,75.49
2019-01-24T01:49:54.021Z,75.57
2019-01-24T01:52:19.959Z,75.54
2019-01-24T01:54:45.963Z,75.62
2019-01-24T01:57:11.890Z,75.65
2019-01-24T01:59:37.824Z,75.27
2019-01-24T02:02:03.825Z,75.29
2019-01-24T02:04:30.877Z,75.25
2019-01-24T02:06:57.327Z,75.44
2019-01-24T02:09:23.304Z,75.27
2019-01-24T02:11:49.240Z,75.30
2019-01-24T02:14:15.167Z,75.22
2019-01-24T02:16:41.474Z,75.16
2019-01-24T02:19:07.519Z,74.97
2019-01-24T02:21:33.450Z,74.90
2019-01-24T02:23:59.820Z,74.86
2019-01-24T02:26:26.572Z,74.87
2019-01-24T02:28:52.512Z,74.95
2019-01-24T02:31:18.500Z,74.94
2019-01-24T02:33:44.420Z,74.97
2019-01-24T02:36:10.700Z,74.96
2019-01-24T02:38:36.911Z,74.84
2019-01-24T02:41:04.634Z,74.80
2019-01-24T02:43:30.901Z,74.98
2019-01-24T02:45:57.160Z,75.00
2019-01-24T02:48:23.099Z,75.07
2019-01-24T02:50:49.041Z,75.13
2019-01-24T02:53:15.833Z,75.16
2019-01-24T02:55:41.877Z,75.04
2019-01-24T02:58:07.916Z,74.89
2019-01-24T03:00:33.928Z,74.87
2019-01-24T03:02:59.849Z,74.91
2019-01-24T03:05:25.882Z,74.97
2019-01-24T03:07:53.007Z,75.00
2019-01-24T03:10:19.465Z,75.15
2019-01-24T03:12:45.499Z,75.30
2019-01-24T03:15:21.463Z,75.30
2019-01-24T03:17:48.092Z,75.37
2019-01-24T03:20:16.037Z,75.40
2019-01-24T03:22:43.198Z,75.27
2019-01-24T03:25:12.028Z,75.34
2019-01-24T03:27:37.954Z,75.33
2019-01-24T03:30:18.164Z,75.31
2019-01-24T03:32:44.115Z,75.29
2019-01-24T03:35:13.032Z,75.42
2019-01-24T03:37:39.059Z,75.48
2019-01-24T03:40:08.958Z,75.75
2019-01-24T03:42:34.882Z,75.84
2019-01-24T03:45:01.000Z,75.98
2019-01-24T03:47:26.925Z,76.05
2019-01-24T03:49:52.869Z,76.06
2019-01-24T03:52:18.821Z,76.14
2019-01-24T03:54:44.749Z,76.13
2019-01-24T03:57:12.595Z,76.21
2019-01-24T03:59:38.765Z,76.07
2019-01-24T04:02:04.694Z,75.87
2019-01-24T04:04:30.614Z,75.53
2019-01-24T04:06:57.479Z,75.31
2019-01-24T04:09:25.385Z,75.13
2019-01-24T04:11:51.319Z,74.99
2019-01-24T04:14:17.290Z,74.85
2019-01-24T04:16:43.819Z,74.80
2019-01-24T04:19:09.875Z,74.67
2019-01-24T04:21:37.076Z,74.56
2019-01-24T04:24:03.218Z,74.62
2019-01-24T04:26:29.156Z,74.83
2019-01-24T04:28:55.977Z,74.99
2019-01-24T04:31:21.904Z,75.31
2019-01-24T04:33:47.834Z,75.45
2019-01-24T04:36:14.514Z,75.46
2019-01-24T04:38:40.425Z,75.64
2019-01-24T04:41:07.265Z,75.70
2019-01-24T04:43:33.229Z,75.90
2019-01-24T04:46:00.862Z,76.08
2019-01-24T04:48:28.523Z,76.14
2019-01-24T04:50:54.513Z,75.99
2019-01-24T04:53:20.468Z,75.84
2019-01-24T04:55:46.381Z,75.43
2019-01-24T04:58:12.359Z,75.05
2019-01-24T05:00:38.284Z,75.02
2019-01-24T05:03:05.027Z,75.04
2019-01-24T05:05:31.291Z,74.87
2019-01-24T05:07:57.252Z,74.97
2019-01-24T05:10:24.877Z,75.05
2019-01-24T05:12:51.181Z,75.12
2019-01-24T05:15:17.400Z,75.31
2019-01-24T05:17:43.732Z,75.34
2019-01-24T05:20:11.921Z,75.34
2019-01-24T05:22:39.876Z,75.39
2019-01-24T05:25:08.603Z,75.19
2019-01-24T05:27:34.572Z,74.91
2019-01-24T05:30:00.656Z,74.56
2019-01-24T05:32:27.073Z,75.12
2019-01-24T05:34:53.354Z,75.22
2019-01-24T05:37:20.428Z,74.79
2019-01-24T05:39:46.777Z,74.54
2019-01-24T05:42:14.144Z,74.18
2019-01-24T05:44:40.475Z,74.14
2019-01-24T05:47:06.444Z,74.10
2019-01-24T05:49:32.424Z,74.20
2019-01-24T05:51:58.375Z,74.68
2019-01-24T05:54:26.022Z,74.89
2019-01-24T05:56:52.523Z,75.03
2019-01-24T05:59:19.565Z,75.20
2019-01-24T06:01:46.183Z,75.31
2019-01-24T06:04:12.467Z,75.36
2019-01-24T06:06:38.410Z,75.41
2019-01-24T06:09:05.844Z,75.49
2019-01-24T06:11:31.860Z,75.55
2019-01-24T06:13:58.605Z,75.61
2019-01-24T06:16:25.347Z,75.71
2019-01-24T06:18:54.114Z,75.61
2019-01-24T06:21:20.254Z,75.45
2019-01-24T06:23:46.624Z,75.25
2019-01-24T06:26:13.139Z,75.22
2019-01-24T06:28:39.069Z,75.02
2019-01-24T06:31:05.418Z,74.87
2019-01-24T06:33:31.444Z,74.85
2019-01-24T06:35:57.965Z,75.14
2019-01-24T06:38:24.094Z,75.24
2019-01-24T06:40:50.312Z,75.15
2019-01-24T06:43:17.046Z,75.08
2019-01-24T06:45:42.976Z,75.03
2019-01-24T06:48:09.347Z,75.04
2019-01-24T06:50:35.299Z,74.97
2019-01-24T06:53:01.216Z,74.96
2019-01-24T06:55:27.487Z,74.78
2019-01-24T06:57:53.824Z,74.30
2019-01-24T07:00:20.160Z,74.96
2019-01-24T07:02:46.260Z,74.74
2019-01-24T07:05:12.689Z,74.30
2019-01-24T07:07:38.618Z,74.44
2019-01-24T07:10:10.564Z,74.44
2019-01-24T07:12:36.696Z,74.57
2019-01-24T07:15:06.128Z,74.48
2019-01-24T07:17:32.387Z,74.39
2019-01-24T07:19:58.327Z,74.31
2019-01-24T07:22:24.255Z,74.21
2019-01-24T07:24:50.300Z,74.14
2019-01-24T07:27:16.214Z,73.85
2019-01-24T07:29:42.139Z,73.62
2019-01-24T07:32:09.117Z,73.26
2019-01-24T07:34:35.052Z,72.93
2019-01-24T07:37:00.977Z,72.70
2019-01-24T07:39:26.958Z,72.51
2019-01-24T07:41:52.924Z,72.59
2019-01-24T07:44:20.751Z,72.84
2019-01-24T07:46:46.750Z,73.12
2019-01-24T07:49:12.708Z,73.54
2019-01-24T07:51:38.635Z,73.70
2019-01-24T07:54:04.611Z,73.59
2019-01-24T07:56:30.542Z,73.56
2019-01-24T07:58:58.922Z,73.31
2019-01-24T08:01:25.022Z,73.03
2019-01-24T08:03:50.955Z,73.13
2019-01-24T08:06:17.380Z,73.20
2019-01-24T08:08:45.189Z,73.11
2019-01-24T08:11:11.124Z,73.34
2019-01-24T08:13:38.059Z,73.23
2019-01-24T08:16:04.128Z,73.25
2019-01-24T08:18:30.040Z,72.98
2019-01-24T08:20:55.981Z,72.86
2019-01-24T08:23:22.254Z,72.75
2019-01-24T08:25:48.388Z,72.62
2019-01-24T08:28:16.652Z,72.48
2019-01-24T08:30:45.995Z,72.45
2019-01-24T08:33:12.070Z,72.43
2019-01-24T08:35:38.045Z,72.35
2019-01-24T08:38:04.494Z,72.37
2019-01-24T08:40:30.840Z,72.59
2019-01-24T08:42:58.792Z,72.72
2019-01-24T08:45:24.767Z,72.74
2019-01-24T08:47:50.805Z,72.82
2019-01-24T08:50:19.877Z,72.92
2019-01-24T08:52:45.887Z,72.92
2019-01-24T08:55:30.568Z,72.97
2019-01-24T08:57:57.411Z,73.06
2019-01-24T09:00:23.375Z,73.10
2019-01-24T09:02:50.599Z,73.21
2019-01-24T09:05:17.753Z,73.27
2019-01-24T09:07:43.725Z,73.50
2019-01-24T09:10:13.486Z,73.66
2019-01-24T09:12:39.477Z,73.82
2019-01-24T09:15:09.043Z,73.96
2019-01-24T09:17:35.606Z,74.14
2019-01-24T09:20:03.281Z,74.24
2019-01-24T09:22:29.243Z,74.26
2019-01-24T09:24:55.258Z,74.23
2019-01-24T09:27:21.227Z,74.27
2019-01-24T09:29:47.146Z,74.32
2019-01-24T09:32:13.079Z,74.39
2019-01-24T09:34:39.062Z,74.55
2019-01-24T09:37:05.207Z,74.75
2019-01-24T09:39:31.166Z,75.09
2019-01-24T09:41:57.130Z,75.30
2019-01-24T09:44:23.362Z,75.53
2019-01-24T09:46:49.301Z,75.82
2019-01-24T09:49:15.610Z,76.17
2019-01-24T09:51:42.046Z,76.48
2019-01-24T09:54:07.980Z,76.76
2019-01-24T09:56:33.974Z,77.09
2019-01-24T09:59:00.706Z,77.79
2019-01-24T10:01:27.250Z,78.21
2019-01-24T10:03:54.015Z,78.28
2019-01-24T10:06:19.937Z,78.24
2019-01-24T10:08:45.868Z,78.04
2019-01-24T10:11:11.833Z,78.24
2019-01-24T10:13:37.951Z,78.26
2019-01-24T10:16:07.155Z,77.97
2019-01-24T10:18:33.161Z,77.69
2019-01-24T10:20:59.587Z,77.15
2019-01-24T10:23:25.515Z,76.10
2019-01-24T10:25:51.675Z,75.94
2019-01-24T10:28:17.604Z,75.78
2019-01-24T10:30:43.904Z,75.00
2019-01-24T10:33:10.823Z,74.63
2019-01-24T10:35:37.066Z,74.56
2019-01-24T10:38:05.300Z,74.44
2019-01-24T10:40:32.802Z,74.48
2019-01-24T10:42:59.639Z,74.29
2019-01-24T10:45:26.180Z,74.18
2019-01-24T10:47:52.597Z,74.00
2019-01-24T10:50:22.087Z,73.73
2019-01-24T10:52:48.226Z,73.29
2019-01-24T10:55:17.002Z,72.64
2019-01-24T10:57:43.334Z,72.33
2019-01-24T11:00:21.060Z,71.73
2019-01-24T11:02:47.306Z,71.51
2019-01-24T11:05:18.173Z,71.29
2019-01-24T11:07:44.334Z,70.63
2019-01-24T11:10:12.519Z,70.47
2019-01-24T11:12:38.740Z,69.65
2019-01-24T11:15:08.507Z,69.04
2019-01-24T11:17:35.376Z,68.83
2019-01-24T11:20:01.300Z,68.37
2019-01-24T11:22:27.294Z,68.52
2019-01-24T11:24:53.271Z,68.13
2019-01-24T11:27:19.239Z,67.94
2019-01-24T11:29:46.295Z,67.55
2019-01-24T11:32:12.742Z,67.26
2019-01-24T11:34:38.669Z,67.22
2019-01-24T11:37:04.662Z,67.49
2019-01-24T11:39:30.595Z,66.97
2019-01-24T11:41:56.518Z,66.14
2019-01-24T11:44:22.521Z,65.79
2019-01-24T11:46:48.768Z,65.62
2019-01-24T11:49:15.516Z,65.56
2019-01-24T11:51:41.477Z,65.58
2019-01-24T11:54:07.521Z,65.34
2019-01-24T11:56:33.595Z,65.24
2019-01-24T11:58:59.553Z,65.10
2019-01-24T12:01:25.475Z,64.60
2019-01-24T12:03:51.409Z,64.74
2019-01-24T12:06:17.676Z,63.42
2019-01-24T12:08:43.642Z,62.70
2019-01-24T12:11:09.568Z,62.72
2019-01-24T12:13:35.548Z,62.52
2019-01-24T12:16:04.749Z,62.04
2019-01-24T12:18:30.745Z,62.43
2019-01-24T12:20:56.756Z,62.05
2019-01-24T12:23:22.679Z,61.87
2019-01-24T12:25:49.330Z,61.60
2019-01-24T12:28:15.333Z,61.21
2019-01-24T12:30:41.256Z,60.86
2019-01-24T12:33:07.192Z,60.77
2019-01-24T12:35:33.156Z,60.36
2019-01-24T12:37:59.211Z,59.51
2019-01-24T12:40:26.132Z,60.27
2019-01-24T12:42:52.093Z,59.73
2019-01-24T12:45:32.699Z,59.99
2019-01-24T12:47:58.883Z,59.86
2019-01-24T12:50:24.814Z,59.39
2019-01-24T12:52:51.256Z,56.36
2019-01-24T12:55:17.438Z,50.19
2019-01-24T12:57:43.682Z,46.61
2019-01-24T13:00:15.956Z,44.24
2019-01-24T13:02:41.938Z,42.79
2019-01-24T13:05:08.687Z,41.85
2019-01-24T13:07:34.694Z,40.58
2019-01-24T13:10:00.762Z,40.10
2019-01-24T13:12:27.063Z,38.86
2019-01-24T13:14:55.241Z,38.61
2019-01-24T13:17:21.622Z,38.88
2019-01-24T13:19:47.594Z,37.28
2019-01-24T13:22:13.861Z,36.24
2019-01-24T13:24:40.095Z,36.17
2019-01-24T13:27:06.029Z,35.54
2019-01-24T13:29:32.249Z,35.38
2019-01-24T13:31:58.241Z,35.66
2019-01-24T13:34:24.168Z,35.48
2019-01-24T13:36:50.097Z,35.11
2019-01-24T13:39:16.076Z,33.93
2019-01-24T13:41:42.518Z,34.49
2019-01-24T13:44:08.740Z,34.86
2019-01-24T13:46:34.723Z,35.15
2019-01-24T13:49:00.652Z,35.45
2019-01-24T13:51:26.572Z,35.27
2019-01-24T13:53:52.862Z,35.82
2019-01-24T13:56:18.798Z,37.51
2019-01-24T13:58:44.728Z,40.67
2019-01-24T14:01:10.718Z,43.03
2019-01-24T14:03:42.007Z,45.08
2019-01-24T14:06:06.003Z,45.85
2019-01-24T14:08:31.964Z,46.93
2019-01-24T14:10:58.096Z,47.92
2019-01-24T14:13:24.519Z,48.89
2019-01-24T14:15:50.526Z,49.81
2019-01-24T14:18:16.559Z,50.64
2019-01-24T14:20:42.555Z,51.56
2019-01-24T14:23:08.515Z,52.18
2019-01-24T14:25:34.663Z,52.81
2019-01-24T14:28:00.593Z,53.13
2019-01-24T14:30:27.932Z,53.97
2019-01-24T14:32:53.967Z,54.55
2019-01-24T14:35:20.085Z,55.20
2019-01-24T14:37:46.184Z,55.68
2019-01-24T14:40:13.946Z,55.57
2019-01-24T14:42:40.329Z,55.89
2019-01-24T14:45:18.710Z,55.94
2019-01-24T14:47:45.633Z,56.27
2019-01-24T14:50:15.161Z,56.05
2019-01-24T14:52:41.216Z,56.80
2019-01-24T14:55:09.884Z,57.69
2019-01-24T14:57:38.235Z,57.71
2019-01-24T15:00:14.112Z,58.74
2019-01-24T15:02:41.368Z,58.24
2019-01-24T15:05:09.307Z,58.83
2019-01-24T15:07:35.277Z,59.67
2019-01-24T15:10:01.504Z,60.80
2019-01-24T15:12:29.988Z,61.06
2019-01-24T15:14:55.904Z,61.49
2019-01-24T15:17:22.466Z,62.18
2019-01-24T15:19:48.405Z,63.08
2019-01-24T15:22:14.670Z,62.45
2019-01-24T15:24:40.609Z,62.33
2019-01-24T15:27:06.534Z,62.06
2019-01-24T15:29:33.401Z,62.93
2019-01-24T15:31:59.338Z,62.65
2019-01-24T15:34:25.410Z,63.33
2019-01-24T15:36:51.413Z,63.23
2019-01-24T15:39:17.349Z,63.07
2019-01-24T15:41:43.312Z,64.06
2019-01-24T15:44:09.307Z,63.56
2019-01-24T15:46:35.315Z,63.63
2019-01-24T15:49:01.302Z,63.84
2019-01-24T15:51:27.262Z,64.85
2019-01-24T15:53:53.203Z,66.25
2019-01-24T15:56:19.234Z,67.10
2019-01-24T15:58:45.222Z,67.34
2019-01-24T16:01:11.159Z,67.77
2019-01-24T16:03:37.693Z,67.88
2019-01-24T16:06:04.106Z,68.18
2019-01-24T16:08:30.039Z,68.37
2019-01-24T16:10:56.291Z,68.32
2019-01-24T16:13:22.788Z,68.44
2019-01-24T16:15:49.540Z,68.61
2019-01-24T16:18:15.685Z,68.61
2019-01-24T16:20:42.053Z,67.50
2019-01-24T16:23:08.458Z,67.64
2019-01-24T16:25:35.257Z,67.84
2019-01-24T16:28:01.257Z,68.38
2019-01-24T16:30:30.359Z,67.87
2019-01-24T16:32:56.527Z,68.09
2019-01-24T16:35:22.896Z,68.57
2019-01-24T16:37:49.006Z,68.88
2019-01-24T16:40:16.946Z,69.30
2019-01-24T16:42:42.940Z,69.66
2019-01-24T16:45:14.931Z,70.08
2019-01-24T16:47:40.967Z,70.28
2019-01-24T16:50:10.365Z,70.61
2019-01-24T16:52:36.950Z,70.81
2019-01-24T16:55:06.004Z,70.89
2019-01-24T16:57:32.217Z,71.00
2019-01-24T16:59:58.550Z,70.75
2019-01-24T17:02:24.611Z,71.22
2019-01-24T17:04:50.726Z,71.22
2019-01-24T17:07:16.955Z,70.81
2019-01-24T17:09:42.896Z,71.04
2019-01-24T17:12:08.889Z,71.88
2019-01-24T17:14:34.829Z,72.41
2019-01-24T17:17:01.594Z,72.67
2019-01-24T17:19:28.915Z,72.92
2019-01-24T17:21:55.166Z,73.12
2019-01-24T17:24:22.165Z,73.50
2019-01-24T17:26:48.653Z,73.47
2019-01-24T17:29:15.209Z,73.04
2019-01-24T17:31:41.158Z,72.96
2019-01-24T17:34:08.121Z,73.14
2019-01-24T17:36:34.059Z,73.51
2019-01-24T17:38:59.991Z,73.72
2019-01-24T17:41:26.080Z,73.75
2019-01-24T17:43:52.788Z,73.97
2019-01-24T17:46:18.722Z,74.00
2019-01-24T17:48:44.698Z,74.52
2019-01-24T17:51:10.633Z,74.94
2019-01-24T17:53:36.565Z,74.42
2019-01-24T17:56:03.688Z,74.60
2019-01-24T17:58:29.623Z,74.96
2019-01-24T18:00:55.538Z,75.25
2019-01-24T18:03:21.516Z,75.35
2019-01-24T18:05:48.413Z,75.49
2019-01-24T18:08:15.373Z,75.46
2019-01-24T18:10:44.030Z,75.47
2019-01-24T18:13:09.964Z,75.27
2019-01-24T18:15:36.191Z,75.38
2019-01-24T18:18:05.999Z,75.45
2019-01-24T18:20:33.848Z,75.45
2019-01-24T18:23:00.775Z,75.57
2019-01-24T18:25:28.268Z,75.75
2019-01-24T18:27:54.316Z,75.70
2019-01-24T18:30:25.254Z,75.76
2019-01-24T18:32:51.276Z,75.75
2019-01-24T18:35:17.501Z,75.78
2019-01-24T18:37:43.656Z,75.85
2019-01-24T18:40:13.265Z,75.75
2019-01-24T18:42:39.202Z,75.80
2019-01-24T18:45:09.190Z,75.73
2019-01-24T18:47:35.665Z,75.92
2019-01-24T18:50:02.219Z,76.01
2019-01-24T18:52:28.143Z,76.05
2019-01-24T18:54:54.420Z,75.98
2019-01-24T18:57:20.360Z,75.88
2019-01-24T18:59:46.542Z,75.87
2019-01-24T19:02:12.536Z,75.71
2019-01-24T19:04:40.909Z,75.53
2019-01-24T19:07:07.058Z,75.38
2019-01-24T19:09:33.048Z,75.25
2019-01-24T19:11:58.989Z,74.94
2019-01-24T19:14:25.065Z,75.65
2019-01-24T19:16:52.528Z,75.44
2019-01-24T19:19:18.495Z,75.12
2019-01-24T19:21:44.716Z,75.20
2019-01-24T19:24:10.857Z,75.11
2019-01-24T19:26:39.480Z,75.25
2019-01-24T19:29:05.501Z,75.18
2019-01-24T19:31:31.476Z,74.94
2019-01-24T19:33:57.423Z,74.83
2019-01-24T19:36:23.347Z,75.04
2019-01-24T19:38:53.189Z,75.14
2019-01-24T19:41:17.300Z,74.93
2019-01-24T19:43:43.244Z,74.87
2019-01-24T19:46:09.239Z,75.15
2019-01-24T19:48:35.162Z,75.52
2019-01-24T19:51:01.444Z,75.67
2019-01-24T19:53:27.519Z,75.67
2019-01-24T19:55:53.649Z,75.64
2019-01-24T19:58:19.990Z,75.56
2019-01-24T20:00:46.206Z,75.55
2019-01-24T20:03:12.351Z,75.31
2019-01-24T20:05:38.287Z,75.27
2019-01-24T20:08:04.680Z,75.33
2019-01-24T20:10:30.753Z,75.49
2019-01-24T20:12:57.210Z,75.62
2019-01-24T20:15:27.674Z,75.65
2019-01-24T20:17:53.826Z,75.70
2019-01-24T20:20:21.468Z,75.85
2019-01-24T20:22:48.164Z,75.97
2019-01-24T20:25:23.210Z,76.05
2019-01-24T20:27:49.315Z,76.17
2019-01-24T20:30:23.474Z,76.21
2019-01-24T20:32:49.653Z,76.19
2019-01-24T20:35:22.395Z,76.17
2019-01-24T20:37:48.488Z,76.36
2019-01-24T20:40:15.120Z,76.29
2019-01-24T20:42:41.285Z,76.22
2019-01-24T20:45:09.685Z,76.18
2019-01-24T20:47:35.815Z,76.47
2019-01-24T20:50:04.554Z,76.48
2019-01-24T20:52:30.539Z,75.98
2019-01-24T20:55:00.973Z,75.80
2019-01-24T20:57:29.574Z,75.51
2019-01-24T20:59:55.570Z,75.55
2019-01-24T21:02:23.933Z,75.49
2019-01-24T21:04:53.029Z,75.40
2019-01-24T21:07:19.002Z,75.49
2019-01-24T21:09:45.090Z,75.60
2019-01-24T21:12:11.032Z,75.92
2019-01-24T21:14:37.024Z,76.49
2019-01-24T21:17:02.983Z,76.98
2019-01-24T21:19:29.153Z,77.39
2019-01-24T21:21:55.304Z,77.82
2019-01-24T21:24:21.241Z,78.19
2019-01-24T21:26:47.169Z,78.43
2019-01-24T21:29:13.417Z,78.49
2019-01-24T21:31:40.763Z,78.53
2019-01-24T21:34:06.683Z,78.30
2019-01-24T21:36:32.679Z,78.18
2019-01-24T21:39:01.092Z,78.06
2019-01-24T21:41:27.126Z,77.99
2019-01-24T21:43:53.080Z,78.33
2019-01-24T21:46:19.178Z,78.35
2019-01-24T21:48:45.743Z,77.74
2019-01-24T21:51:11.707Z,77.37
2019-01-24T21:53:37.733Z,77.12
2019-01-24T21:56:03.929Z,76.95
2019-01-24T21:58:29.901Z,76.78
2019-01-24T22:00:55.869Z,76.69
2019-01-24T22:03:22.091Z,76.51
2019-01-24T22:05:49.965Z,76.34
2019-01-24T22:08:15.903Z,76.18
2019-01-24T22:10:42.033Z,76.10
2019-01-24T22:13:07.994Z,76.05
2019-01-24T22:15:34.037Z,75.96
2019-01-24T22:17:59.975Z,75.89
2019-01-24T22:20:25.970Z,75.92
2019-01-24T22:22:52.099Z,75.81
2019-01-24T22:25:20.651Z,75.83
2019-01-24T22:27:47.041Z,75.77
2019-01-24T22:30:18.868Z,75.72
2019-01-24T22:32:44.788Z,75.73
2019-01-24T22:35:13.332Z,75.72
2019-01-24T22:37:41.055Z,75.71
2019-01-24T22:40:10.382Z,75.67
2019-01-24T22:42:38.476Z,76.14
2019-01-24T22:45:14.108Z,76.28
2019-01-24T22:47:42.295Z,75.79
2019-01-24T22:50:11.435Z,74.60
2019-01-24T22:52:37.392Z,74.22
2019-01-24T22:55:05.319Z,74.67
2019-01-24T22:57:31.278Z,74.75
2019-01-24T22:59:57.204Z,74.41
2019-01-24T23:02:23.442Z,74.31
2019-01-24T23:04:49.373Z,74.28
2019-01-24T23:07:15.322Z,74.46
2019-01-24T23:09:44.277Z,74.44
2019-01-24T23:12:09.159Z,74.39
2019-01-24T23:14:35.081Z,74.52
2019-01-24T23:17:01.051Z,74.44
2019-01-24T23:19:27.109Z,74.53
2019-01-24T23:21:53.042Z,74.62
2019-01-24T23:24:19.034Z,74.60
2019-01-24T23:26:44.956Z,74.78
2019-01-24T23:29:10.892Z,74.90
2019-01-24T23:31:36.937Z,75.08
2019-01-24T23:34:03.973Z,75.28
2019-01-24T23:36:29.908Z,75.23
2019-01-24T23:38:55.979Z,75.20
2019-01-24T23:41:22.319Z,75.13
2019-01-24T23:43:48.260Z,75.21
2019-01-24T23:46:14.247Z,75.19
2019-01-24T23:48:40.166Z,75.05
2019-01-24T23:51:06.092Z,75.10
2019-01-24T23:53:32.039Z,75.19
2019-01-24T23:55:57.971Z,75.93
2019-01-24T23:58:23.895Z,75.64
